Time;durP1;ratioP1;P1;durP2;ratioP2;P2;SDS_P1;SDS_P2;PMS_P1;PMS_P2;Temp;Humidity;BMP_temperature;BMP_pressure;BME280_temperature;BME280_humidity;BME280_pressure;Samples;Min_cycle;Max_cycle;Signal;HPM_P1;HPM_P2
2023/03/04 00:02:05;;;;;;;43.47;22.20;;;;;;;1.80;95.88;98702.44;5052680;28;20203;-80
2023/03/04 00:04:32;;;;;;;37.63;22.40;;;;;;;1.78;96.18;98698.97;5052781;28;20223;-80
2023/03/04 00:06:59;;;;;;;39.03;20.87;;;;;;;1.82;96.03;98692.81;5052394;28;20211;-80
2023/03/04 00:09:26;;;;;;;40.50;22.10;;;;;;;1.75;96.43;98701.69;5053072;28;20206;-81
2023/03/04 00:11:52;;;;;;;36.87;20.77;;;;;;;1.70;96.65;98703.53;5052462;28;20235;-81
2023/03/04 00:14:19;;;;;;;34.40;20.57;;;;;;;1.65;97.18;98701.97;5052834;28;20593;-80
2023/03/04 00:16:45;;;;;;;38.63;21.27;;;;;;;1.65;97.09;98700.19;5052087;28;20211;-80
2023/03/04 00:19:12;;;;;;;37.87;21.03;;;;;;;1.61;97.13;98700.31;5052537;28;20236;-80
2023/03/04 00:21:39;;;;;;;32.63;19.20;;;;;;;1.61;97.15;98695.94;5052484;28;20210;-80
2023/03/04 00:24:07;;;;;;;38.20;21.10;;;;;;;1.53;97.35;98700.50;5052589;28;20225;-80
2023/03/04 00:26:33;;;;;;;37.67;19.67;;;;;;;1.55;97.40;98711.75;5052316;28;20214;-80
2023/03/04 00:29:00;;;;;;;37.93;20.20;;;;;;;1.50;97.56;98708.41;5052608;28;20223;-80
2023/03/04 00:31:26;;;;;;;35.17;20.13;;;;;;;1.44;97.69;98703.34;5051845;28;20581;-80
2023/03/04 00:33:53;;;;;;;37.43;19.60;;;;;;;1.45;97.84;98702.44;5052260;28;20225;-80
2023/03/04 00:36:19;;;;;;;34.77;19.77;;;;;;;1.40;97.92;98706.03;5052139;28;20671;-81
2023/03/04 00:38:47;;;;;;;33.20;18.47;;;;;;;1.42;98.44;98705.09;5052383;28;20208;-80
2023/03/04 00:41:13;;;;;;;36.43;20.20;;;;;;;1.34;98.53;98712.25;5052474;28;20213;-80
2023/03/04 00:43:40;;;;;;;37.40;19.60;;;;;;;1.34;98.30;98707.03;5056923;22;20778;-89
2023/03/04 00:46:06;;;;;;;34.30;19.43;;;;;;;1.35;98.43;98703.53;5032240;28;20222;-89
2023/03/04 00:48:33;;;;;;;32.97;18.87;;;;;;;1.37;98.21;98701.78;5032325;28;20217;-89
2023/03/04 00:50:59;;;;;;;36.87;19.80;;;;;;;1.39;98.49;98710.41;5032406;28;20215;-89
2023/03/04 00:53:26;;;;;;;33.07;19.87;;;;;;;1.31;98.61;98711.47;5032325;28;20243;-88
2023/03/04 00:55:54;;;;;;;34.63;19.27;;;;;;;1.33;98.23;98705.34;5034103;28;20212;-88
2023/03/04 00:58:21;;;;;;;35.47;19.27;;;;;;;1.23;98.92;98696.03;5033599;28;20213;-89
2023/03/04 01:00:47;;;;;;;37.27;20.73;;;;;;;1.18;98.90;98705.69;5032232;28;20215;-88
2023/03/04 01:03:14;;;;;;;37.47;20.20;;;;;;;1.17;99.10;98700.53;5032101;28;20243;-88
2023/03/04 01:05:40;;;;;;;35.03;18.40;;;;;;;1.14;99.78;98700.59;5032380;28;20212;-88
2023/03/04 01:08:07;;;;;;;37.13;20.20;;;;;;;1.05;99.60;98699.03;5031725;28;20247;-88
2023/03/04 01:10:34;;;;;;;36.17;19.10;;;;;;;1.00;100.00;98694.84;5032125;28;20211;-89
2023/03/04 01:13:02;;;;;;;39.07;19.63;;;;;;;0.99;100.00;98693.97;5031661;28;20733;-86
2023/03/04 01:15:28;;;;;;;37.27;21.03;;;;;;;0.97;100.00;98694.91;5031791;28;20220;-86
2023/03/04 01:17:55;;;;;;;39.37;19.77;;;;;;;1.05;100.00;98693.84;5031428;28;20215;-87
2023/03/04 01:20:21;;;;;;;36.63;19.70;;;;;;;1.03;100.00;98693.03;5032305;28;20610;-87
2023/03/04 01:22:48;;;;;;;36.57;20.20;;;;;;;0.94;100.00;98689.78;5031935;28;20235;-86
2023/03/04 01:25:14;;;;;;;38.77;19.40;;;;;;;1.00;100.00;98695.69;5031974;28;20561;-86
2023/03/04 01:27:41;;;;;;;34.80;18.90;;;;;;;0.88;100.00;98696.00;5031425;28;20212;-89
2023/03/04 01:30:11;;;;;;;38.37;18.80;;;;;;;0.81;100.00;98690.94;5031779;28;20226;-88
2023/03/04 01:32:37;;;;;;;35.60;18.90;;;;;;;0.72;100.00;98694.59;5031403;28;20236;-89
2023/03/04 01:35:04;;;;;;;30.33;17.20;;;;;;;0.70;100.00;98693.78;5031856;28;20222;-89
2023/03/04 01:37:30;;;;;;;33.13;17.73;;;;;;;0.72;100.00;98691.13;5031448;28;20207;-82
2023/03/04 01:39:57;;;;;;;31.53;17.50;;;;;;;0.70;100.00;98690.31;5031544;28;20209;-87
2023/03/04 01:42:26;;;;;;;32.63;17.27;;;;;;;0.71;100.00;98685.09;5031373;28;20219;-86
2023/03/04 01:44:53;;;;;;;32.70;17.67;;;;;;;0.71;100.00;98682.50;5031379;28;20743;-85
2023/03/04 01:47:23;;;;;;;31.30;17.50;;;;;;;0.71;100.00;98687.69;5031472;28;20207;-85
2023/03/04 01:49:54;;;;;;;31.60;17.37;;;;;;;0.71;100.00;98684.22;5031387;28;20219;-85
2023/03/04 01:52:20;;;;;;;32.27;16.97;;;;;;;0.69;100.00;98684.25;5031541;28;20235;-85
2023/03/04 01:54:47;;;;;;;28.27;16.23;;;;;;;0.70;100.00;98687.72;5031597;28;20211;-85
2023/03/04 01:57:17;;;;;;;30.37;16.37;;;;;;;0.63;100.00;98686.97;5031152;28;20209;-85
2023/03/04 01:59:43;;;;;;;28.60;15.60;;;;;;;0.64;100.00;98680.91;5031081;28;20271;-85
2023/03/04 02:02:10;;;;;;;29.43;15.37;;;;;;;0.64;100.00;98683.50;5031591;28;20536;-85
2023/03/04 02:04:39;;;;;;;28.17;15.90;;;;;;;0.64;100.00;98696.53;5031331;28;20232;-85
2023/03/04 02:07:06;;;;;;;28.73;16.07;;;;;;;0.64;100.00;98680.91;5031244;28;20207;-85
2023/03/04 02:09:34;;;;;;;24.77;15.23;;;;;;;0.56;100.00;98684.56;5031513;28;20212;-85
2023/03/04 02:12:01;;;;;;;28.43;15.73;;;;;;;0.50;100.00;98682.09;5031274;28;20238;-86
2023/03/04 02:14:28;;;;;;;25.00;13.93;;;;;;;0.57;100.00;98683.66;5031601;28;20239;-85
2023/03/04 02:16:54;;;;;;;24.43;14.70;;;;;;;0.49;100.00;98682.97;5031116;28;20800;-85
2023/03/04 02:19:31;;;;;;;28.13;15.90;;;;;;;0.40;100.00;98681.44;5031399;28;20205;-85
2023/03/04 02:21:59;;;;;;;26.87;15.50;;;;;;;0.37;100.00;98681.47;5031311;28;20207;-85
2023/03/04 02:24:29;;;;;;;30.00;16.10;;;;;;;0.33;100.00;98679.81;5031342;28;20632;-85
2023/03/04 02:26:57;;;;;;;29.63;15.13;;;;;;;0.30;100.00;98674.69;5031313;28;20211;-85
2023/03/04 02:29:23;;;;;;;28.43;14.97;;;;;;;0.25;100.00;98676.50;5031165;28;20738;-85
2023/03/04 02:31:52;;;;;;;27.97;15.60;;;;;;;0.25;100.00;98671.31;5031573;28;20576;-85
2023/03/04 02:34:21;;;;;;;26.73;14.80;;;;;;;0.20;100.00;98678.34;5030907;28;20721;-85
2023/03/04 02:36:49;;;;;;;26.53;16.07;;;;;;;0.21;100.00;98680.09;5030959;28;20312;-85
2023/03/04 02:39:25;;;;;;;27.70;14.70;;;;;;;0.23;100.00;98674.84;5031021;28;20213;-85
2023/03/04 02:41:53;;;;;;;25.40;14.23;;;;;;;0.23;100.00;98683.50;5031467;28;20583;-85
2023/03/04 02:44:25;;;;;;;28.50;15.13;;;;;;;0.19;100.00;98676.63;5030972;28;20234;-85
2023/03/04 02:46:52;;;;;;;28.03;15.43;;;;;;;0.15;100.00;98682.81;5030971;28;20216;-85
2023/03/04 02:49:19;;;;;;;28.63;15.23;;;;;;;0.11;100.00;98683.75;5031202;28;20214;-85
2023/03/04 02:51:46;;;;;;;27.47;14.87;;;;;;;0.07;100.00;98684.66;5030940;28;20560;-85
2023/03/04 02:54:17;;;;;;;27.20;16.03;;;;;;;0.07;100.00;98681.25;5031627;28;20262;-85
2023/03/04 02:56:46;;;;;;;27.90;15.00;;;;;;;0.07;100.00;98687.28;5034500;28;20212;-85
2023/03/04 02:59:13;;;;;;;29.37;14.87;;;;;;;0.00;100.00;98684.84;5034431;28;20674;-85
2023/03/04 03:01:41;;;;;;;26.37;15.23;;;;;;;-0.05;100.00;98682.31;5034559;28;20212;-85
2023/03/04 03:04:07;;;;;;;29.50;15.50;;;;;;;-0.04;100.00;98691.81;5034491;28;20226;-85
2023/03/04 03:06:34;;;;;;;27.13;14.60;;;;;;;-0.11;100.00;98682.41;5034429;28;20210;-85
2023/03/04 03:09:00;;;;;;;26.97;15.10;;;;;;;-0.16;100.00;98681.63;5034562;28;20211;-85
2023/03/04 03:11:27;;;;;;;30.03;16.70;;;;;;;-0.18;100.00;98679.97;5034517;28;20215;-85
2023/03/04 03:13:53;;;;;;;28.47;16.30;;;;;;;-0.22;100.00;98679.16;5034341;28;20242;-85
2023/03/04 03:16:20;;;;;;;28.67;15.20;;;;;;;-0.22;100.00;98689.53;5034145;28;20218;-85
2023/03/04 03:18:48;;;;;;;31.27;16.23;;;;;;;-0.26;100.00;98683.59;5034112;28;20218;-85
2023/03/04 03:21:14;;;;;;;25.80;15.10;;;;;;;-0.28;100.00;98683.63;5034586;28;20246;-85
2023/03/04 03:23:42;;;;;;;31.17;15.67;;;;;;;-0.25;100.00;98685.31;5034268;28;20232;-85
2023/03/04 03:26:09;;;;;;;30.07;15.90;;;;;;;-0.28;100.00;98684.47;5033894;28;20212;-85
2023/03/04 03:28:35;;;;;;;29.70;15.67;;;;;;;-0.26;100.00;98678.41;5034221;28;20216;-85
2023/03/04 03:31:02;;;;;;;27.93;16.20;;;;;;;-0.28;100.00;98678.44;5034237;28;20692;-85
2023/03/04 03:33:29;;;;;;;31.43;16.23;;;;;;;-0.28;100.00;98677.56;5033804;28;20697;-85
2023/03/04 03:35:57;;;;;;;28.67;15.27;;;;;;;-0.31;100.00;98673.28;5034130;28;20212;-85
2023/03/04 03:38:23;;;;;;;29.53;16.87;;;;;;;-0.36;100.00;98675.13;5033680;28;20222;-85
2023/03/04 03:40:49;;;;;;;32.70;16.97;;;;;;;-0.35;100.00;98670.75;5033833;28;20221;-85
2023/03/04 03:43:16;;;;;;;28.83;15.83;;;;;;;-0.40;100.00;98676.03;5033771;28;20238;-85
2023/03/04 03:45:42;;;;;;;33.07;16.10;;;;;;;-0.44;100.00;98687.34;5033849;28;20676;-85
2023/03/04 03:48:09;;;;;;;32.13;15.30;;;;;;;-0.39;100.00;98674.31;5033593;28;20306;-85
2023/03/04 03:50:35;;;;;;;29.20;16.67;;;;;;;-0.41;100.00;98676.06;5033705;28;20211;-85
2023/03/04 03:53:03;;;;;;;28.70;15.67;;;;;;;-0.38;100.00;98676.88;5033529;28;20627;-85
2023/03/04 03:55:30;;;;;;;31.37;17.03;;;;;;;-0.42;100.00;98679.53;5033777;28;20208;-85
2023/03/04 03:57:56;;;;;;;32.90;17.77;;;;;;;-0.42;100.00;98679.53;5033353;28;20212;-85
2023/03/04 04:00:23;;;;;;;33.00;16.80;;;;;;;-0.50;100.00;98681.44;5033420;28;20205;-85
2023/03/04 04:02:50;;;;;;;35.27;17.13;;;;;;;-0.51;100.00;98679.72;5033438;28;20251;-84
2023/03/04 04:05:16;;;;;;;33.47;16.93;;;;;;;-0.56;100.00;98678.94;5033209;28;20225;-85
2023/03/04 04:07:43;;;;;;;36.33;18.33;;;;;;;-0.55;100.00;98683.25;5032422;28;20562;-85
2023/03/04 04:10:11;;;;;;;29.53;15.90;;;;;;;-0.60;100.00;98682.44;5033330;28;20214;-85
2023/03/04 04:12:38;;;;;;;31.47;15.70;;;;;;;-0.65;100.00;98677.34;5033388;28;20233;-85
2023/03/04 04:15:06;;;;;;;30.43;15.67;;;;;;;-0.62;100.00;98686.81;5033210;28;20244;-85
2023/03/04 04:17:32;;;;;;;27.53;16.40;;;;;;;-0.69;100.00;98674.84;5032684;28;20219;-85
2023/03/04 04:19:59;;;;;;;30.93;16.63;;;;;;;-0.67;100.00;98678.25;5032964;28;20237;-84
2023/03/04 04:22:25;;;;;;;34.23;17.47;;;;;;;-0.70;100.00;98676.56;5032923;28;20222;-85
2023/03/04 04:24:52;;;;;;;32.90;17.53;;;;;;;-0.74;100.00;98681.81;5032790;28;20207;-84
2023/03/04 04:27:19;;;;;;;32.33;17.40;;;;;;;-0.70;100.00;98683.47;5032418;28;20205;-85
2023/03/04 04:29:46;;;;;;;36.93;17.33;;;;;;;-0.72;100.00;98687.84;5032752;28;20210;-84
2023/03/04 04:32:12;;;;;;;36.87;18.00;;;;;;;-0.70;100.00;98688.66;5032793;28;20218;-84
2023/03/04 04:34:39;;;;;;;34.77;18.10;;;;;;;-0.73;100.00;98684.41;5032622;28;20248;-85
2023/03/04 04:37:05;;;;;;;37.80;17.57;;;;;;;-0.79;100.00;98689.69;5032500;28;20215;-84
2023/03/04 04:39:32;;;;;;;34.20;18.50;;;;;;;-0.79;100.00;98688.81;5032597;28;20221;-84
2023/03/04 04:41:58;;;;;;;34.23;18.23;;;;;;;-0.81;100.00;98691.44;5032380;28;20596;-84
2023/03/04 04:44:26;;;;;;;35.90;17.43;;;;;;;-0.85;100.00;98694.09;5032357;28;20444;-85
2023/03/04 04:46:53;;;;;;;33.83;18.20;;;;;;;-0.82;100.00;98694.03;5032232;28;20211;-85
2023/03/04 04:49:19;;;;;;;37.43;18.73;;;;;;;-0.85;100.00;98687.19;5032501;28;20217;-84
2023/03/04 04:51:46;;;;;;;35.60;17.17;;;;;;;-0.93;100.00;98686.44;5032388;28;20202;-84
2023/03/04 04:54:14;;;;;;;40.43;18.93;;;;;;;-0.95;100.00;98685.59;5032291;28;20232;-84
2023/03/04 04:56:41;;;;;;;34.47;18.27;;;;;;;-0.94;100.00;98691.63;5031887;28;20216;-84
2023/03/04 04:59:07;;;;;;;38.57;17.90;;;;;;;-1.02;100.00;98683.13;5032361;28;20559;-84
2023/03/04 05:01:35;;;;;;;37.53;19.60;;;;;;;-1.02;100.00;98690.91;5032183;28;20574;-85
2023/03/04 05:04:02;;;;;;;36.37;17.33;;;;;;;-1.04;100.00;98687.47;5032207;28;20249;-86
2023/03/04 05:06:28;;;;;;;35.83;17.50;;;;;;;-1.07;100.00;98696.16;5031745;28;20214;-83
2023/03/04 05:08:55;;;;;;;37.37;18.80;;;;;;;-1.06;100.00;98700.47;5032069;28;20218;-83
2023/03/04 05:11:22;;;;;;;34.40;18.63;;;;;;;-1.11;100.00;98704.03;5031903;28;20222;-83
2023/03/04 05:13:49;;;;;;;36.90;18.20;;;;;;;-1.16;100.00;98698.88;5032092;28;20273;-83
2023/03/04 05:16:16;;;;;;;36.13;18.47;;;;;;;-1.17;100.00;98704.09;5031767;28;20214;-83
2023/03/04 05:18:44;;;;;;;40.93;19.70;;;;;;;-1.16;100.00;98708.41;5031821;28;20214;-83
2023/03/04 05:21:11;;;;;;;37.23;18.53;;;;;;;-1.21;100.00;98705.03;5031975;28;20209;-86
2023/03/04 05:23:39;;;;;;;41.13;19.37;;;;;;;-1.21;100.00;98710.19;5031832;28;20248;-83
2023/03/04 05:26:07;;;;;;;37.90;17.87;;;;;;;-1.19;100.00;98711.03;5031796;28;20214;-83
2023/03/04 05:28:35;;;;;;;44.90;19.87;;;;;;;-1.29;100.00;98712.06;5031971;28;20704;-83
2023/03/04 05:31:01;;;;;;;34.50;19.10;;;;;;;-1.35;100.00;98717.31;5031871;28;20216;-83
2023/03/04 05:33:28;;;;;;;47.13;21.20;;;;;;;-1.38;100.00;98712.16;5031761;28;20232;-83
2023/03/04 05:35:56;;;;;;;40.13;19.73;;;;;;;-1.37;100.00;98713.88;5031722;28;20567;-83
2023/03/04 05:38:22;;;;;;;38.27;18.70;;;;;;;-1.39;100.00;98713.03;5031323;28;20210;-83
2023/03/04 05:40:49;;;;;;;42.37;20.67;;;;;;;-1.37;100.00;98712.16;5031855;28;20221;-85
2023/03/04 05:43:16;;;;;;;40.40;19.77;;;;;;;-1.41;100.00;98717.41;5031632;28;20264;-85
2023/03/04 05:45:42;;;;;;;38.90;18.97;;;;;;;-1.46;100.00;98719.19;5031547;28;20208;-85
2023/03/04 05:48:10;;;;;;;42.80;19.70;;;;;;;-1.48;100.00;98720.94;5031477;28;20230;-83
2023/03/04 05:50:36;;;;;;;45.10;19.90;;;;;;;-1.52;100.00;98714.06;5031521;28;20215;-83
2023/03/04 05:53:04;;;;;;;39.10;20.07;;;;;;;-1.55;100.00;98719.28;5031381;28;20238;-83
2023/03/04 05:55:31;;;;;;;42.73;19.87;;;;;;;-1.51;100.00;98720.97;5031558;28;20204;-83
2023/03/04 05:57:58;;;;;;;39.60;20.10;;;;;;;-1.44;100.00;98717.41;5031043;28;20210;-83
2023/03/04 06:00:25;;;;;;;40.13;19.20;;;;;;;-1.51;100.00;98721.84;5031476;28;20219;-82
2023/03/04 06:02:51;;;;;;;46.77;20.13;;;;;;;-1.60;100.00;98727.13;5031427;28;20259;-83
2023/03/04 06:05:19;;;;;;;44.40;20.07;;;;;;;-1.62;100.00;98728.00;5031363;28;20209;-83
2023/03/04 06:07:45;;;;;;;42.80;19.37;;;;;;;-1.66;100.00;98721.16;5031483;28;20228;-84
2023/03/04 06:10:15;;;;;;;44.20;20.27;;;;;;;-1.72;100.00;98727.25;5031524;28;20213;-83
2023/03/04 06:12:42;;;;;;;45.80;20.37;;;;;;;-1.70;100.00;98732.44;5031349;28;20320;-89
2023/03/04 06:15:09;;;;;;;44.23;19.80;;;;;;;-1.62;100.00;98726.28;5031343;28;20702;-87
2023/03/04 06:17:36;;;;;;;45.80;20.47;;;;;;;-1.54;100.00;98736.56;5030993;28;20214;-85
2023/03/04 06:20:04;;;;;;;45.83;20.47;;;;;;;-1.59;100.00;98739.19;5031122;28;20220;-83
2023/03/04 06:22:31;;;;;;;42.57;21.80;;;;;;;-1.53;100.00;98748.66;5031026;28;20216;-84
2023/03/04 06:24:57;;;;;;;45.17;21.97;;;;;;;-1.54;100.00;98739.16;5030929;28;20667;-83
2023/03/04 06:27:25;;;;;;;47.70;21.83;;;;;;;-1.56;100.00;98740.91;5031042;28;20577;-81
2023/03/04 06:29:52;;;;;;;42.80;20.90;;;;;;;-1.56;100.00;98748.69;5032915;28;20214;-83
2023/03/04 06:32:18;;;;;;;50.17;21.23;;;;;;;-1.57;100.00;98752.16;5034735;28;20208;-84
2023/03/04 06:34:45;;;;;;;43.63;21.33;;;;;;;-1.52;100.00;98746.06;5034800;28;20229;-83
2023/03/04 06:37:11;;;;;;;45.17;21.00;;;;;;;-1.47;100.00;98757.19;5034442;28;20683;-82
2023/03/04 06:39:38;;;;;;;49.77;20.67;;;;;;;-1.41;100.00;98753.69;5034634;28;20213;-84
2023/03/04 06:42:04;;;;;;;45.23;20.90;;;;;;;-1.41;100.00;98758.88;5034599;28;20636;-84
2023/03/04 06:44:32;;;;;;;48.37;21.83;;;;;;;-1.41;100.00;98764.06;5049101;22;20238;-86
2023/03/04 06:46:59;;;;;;;41.70;20.07;;;;;;;-1.36;100.00;98767.47;5033822;28;20209;-86
2023/03/04 06:49:25;;;;;;;48.87;20.87;;;;;;;-1.34;100.00;98771.75;5034725;28;20210;-86
2023/03/04 06:51:52;;;;;;;48.90;21.93;;;;;;;-1.28;100.00;98770.81;5034682;28;20228;-86
2023/03/04 06:54:19;;;;;;;44.43;21.10;;;;;;;-1.18;100.00;98772.41;5034488;28;20259;-87
2023/03/04 06:56:45;;;;;;;46.90;21.17;;;;;;;-0.99;100.00;98773.88;5034414;28;20213;-86
2023/03/04 06:59:12;;;;;;;45.10;21.13;;;;;;;-0.92;100.00;98778.94;5035280;28;20206;-87
2023/03/04 07:01:40;;;;;;;45.03;20.40;;;;;;;-0.80;100.00;98788.31;5035125;28;20213;-88
2023/03/04 07:04:06;;;;;;;43.07;19.97;;;;;;;-0.67;100.00;98782.06;5035136;28;20601;-85
2023/03/04 07:06:33;;;;;;;40.07;20.23;;;;;;;-0.56;100.00;98785.38;5034552;28;20264;-86
2023/03/04 07:08:59;;;;;;;39.97;19.43;;;;;;;-0.51;100.00;98783.56;5034143;28;20220;-86
2023/03/04 07:11:26;;;;;;;40.77;19.63;;;;;;;-0.41;100.00;98780.78;5034034;28;20212;-86
2023/03/04 07:13:53;;;;;;;32.70;17.63;;;;;;;-0.31;100.00;98777.16;5033790;28;20236;-85
2023/03/04 07:16:22;;;;;;;37.63;18.67;;;;;;;-0.28;100.00;98782.31;5033956;28;20520;-85
2023/03/04 07:18:50;;;;;;;37.97;19.83;;;;;;;-0.20;100.00;98785.63;5034242;28;20219;-86
2023/03/04 07:21:17;;;;;;;39.33;19.17;;;;;;;-0.10;100.00;98793.22;5033996;28;20215;-86
2023/03/04 07:23:44;;;;;;;38.90;18.53;;;;;;;0.00;100.00;98794.81;5033784;28;20229;-85
2023/03/04 07:26:11;;;;;;;35.37;17.50;;;;;;;0.03;100.00;98797.38;5033491;28;20214;-86
2023/03/04 07:28:39;;;;;;;34.67;18.17;;;;;;;0.10;100.00;98791.19;5033493;28;20678;-86
2023/03/04 07:31:10;;;;;;;36.67;17.77;;;;;;;0.19;100.00;98800.56;5034056;28;20273;-85
2023/03/04 07:33:37;;;;;;;39.60;18.67;;;;;;;0.18;100.00;98802.28;5033659;28;20229;-86
2023/03/04 07:36:05;;;;;;;40.03;19.83;;;;;;;0.28;100.00;98798.66;5033768;28;20212;-82
2023/03/04 07:38:32;;;;;;;35.57;18.53;;;;;;;0.32;100.00;98795.09;5033423;28;20202;-85
2023/03/04 07:41:00;;;;;;;36.20;18.53;;;;;;;0.38;100.00;98800.19;5033408;28;20229;-85
2023/03/04 07:43:27;;;;;;;35.17;17.80;;;;;;;0.43;100.00;98803.56;5033202;28;20252;-85
2023/03/04 07:45:59;;;;;;;37.23;17.37;;;;;;;0.51;100.00;98804.25;5033571;28;20274;-85
2023/03/04 07:48:26;;;;;;;31.80;17.27;;;;;;;0.68;100.00;98807.41;5033248;28;20311;-85
2023/03/04 07:51:05;;;;;;;30.30;16.87;;;;;;;0.65;100.00;98804.88;5033514;28;20210;-85
2023/03/04 07:53:32;;;;;;;28.13;16.33;;;;;;;0.65;100.00;98806.59;5033248;28;20232;-85
2023/03/04 07:55:58;;;;;;;34.97;16.83;;;;;;;0.62;100.00;98815.31;5033218;28;20241;-85
2023/03/04 07:58:25;;;;;;;30.80;15.17;;;;;;;0.63;100.00;98813.59;5032890;28;20209;-85
2023/03/04 08:00:52;;;;;;;29.97;16.03;;;;;;;0.70;100.00;98810.84;5033403;28;20238;-85
2023/03/04 08:03:18;;;;;;;33.60;15.93;;;;;;;0.61;100.00;98813.59;5033080;28;20247;-85
2023/03/04 08:05:45;;;;;;;29.10;16.07;;;;;;;0.64;100.00;98812.69;5033008;28;20297;-85
2023/03/04 08:08:13;;;;;;;32.53;16.90;;;;;;;0.76;100.00;98821.13;5032801;28;20219;-85
2023/03/04 08:10:39;;;;;;;33.63;17.37;;;;;;;0.83;100.00;98822.72;5033209;28;20209;-85
2023/03/04 08:13:06;;;;;;;29.77;16.27;;;;;;;0.84;100.00;98821.81;5032770;28;20236;-86
2023/03/04 08:15:34;;;;;;;34.40;17.53;;;;;;;0.97;100.00;98820.69;5032835;28;20231;-84
2023/03/04 08:18:00;;;;;;;34.80;17.53;;;;;;;0.98;100.00;98827.59;5032571;28;20315;-85
2023/03/04 08:20:27;;;;;;;34.03;17.37;;;;;;;0.90;100.00;98826.91;5032837;28;20212;-83
2023/03/04 08:22:54;;;;;;;31.20;17.70;;;;;;;1.01;100.00;98832.75;5032465;28;20223;-84
2023/03/04 08:25:22;;;;;;;30.90;17.07;;;;;;;1.07;100.00;98835.25;5032962;28;20251;-91
2023/03/04 08:27:48;;;;;;;31.73;17.23;;;;;;;0.98;100.00;98830.19;5032413;28;20687;-83
2023/03/04 08:30:15;;;;;;;32.17;16.10;;;;;;;0.94;100.00;98836.38;5032684;28;20218;-86
2023/03/04 08:32:42;;;;;;;35.00;17.33;;;;;;;0.91;100.00;98828.63;5032450;28;20212;-86
2023/03/04 08:35:08;;;;;;;34.10;18.40;;;;;;;0.86;100.00;98833.06;5032468;28;20243;-87
2023/03/04 08:37:35;;;;;;;33.00;17.30;;;;;;;1.02;100.00;98844.88;5032017;28;20208;-86
2023/03/04 08:40:01;;;;;;;31.87;17.07;;;;;;;1.02;100.00;98842.28;5032628;28;20292;-86
2023/03/04 08:42:29;;;;;;;32.90;17.47;;;;;;;1.06;100.00;98838.69;5032541;28;20208;-86
2023/03/04 08:44:56;;;;;;;31.00;16.20;;;;;;;1.13;100.00;98842.91;5030800;28;20236;-82
2023/03/04 08:47:22;;;;;;;30.97;15.57;;;;;;;1.05;100.00;98839.59;5030178;28;20221;-82
2023/03/04 08:49:49;;;;;;;30.93;16.17;;;;;;;1.16;100.00;98832.44;5031104;28;20215;-83
2023/03/04 08:52:15;;;;;;;30.50;16.33;;;;;;;1.28;100.00;98837.38;5030966;28;20224;-85
2023/03/04 08:54:42;;;;;;;31.13;15.93;;;;;;;1.34;100.00;98837.25;5030856;28;20700;-84
2023/03/04 08:57:08;;;;;;;28.27;15.20;;;;;;;1.48;100.00;98832.56;5021261;28;20209;-84
2023/03/04 08:59:36;;;;;;;33.63;17.13;;;;;;;1.54;100.00;98829.84;5031619;28;20211;-84
2023/03/04 09:02:02;;;;;;;32.37;16.40;;;;;;;1.66;100.00;98832.16;5032890;28;20204;-83
2023/03/04 09:04:29;;;;;;;28.63;15.10;;;;;;;1.71;100.00;98826.88;5031923;28;20235;-84
2023/03/04 09:06:55;;;;;;;28.97;15.83;;;;;;;1.82;100.00;98828.31;5031806;28;20638;-84
2023/03/04 09:09:22;;;;;;;28.23;16.47;;;;;;;1.86;100.00;98832.59;5032020;28;20215;-84
2023/03/04 09:11:48;;;;;;;29.43;16.20;;;;;;;1.97;100.00;98829.72;5031919;28;20586;-84
2023/03/04 09:14:15;;;;;;;31.60;16.30;;;;;;;1.86;99.98;98831.72;5031576;28;20229;-84
2023/03/04 09:16:43;;;;;;;30.67;16.93;;;;;;;1.98;100.00;98831.41;5031443;28;20205;-84
2023/03/04 09:19:09;;;;;;;27.47;15.03;;;;;;;2.03;100.00;98834.78;5031938;28;20211;-84
2023/03/04 09:21:36;;;;;;;28.73;15.37;;;;;;;2.07;99.93;98837.25;5032580;28;20216;-85
2023/03/04 09:24:02;;;;;;;27.90;16.13;;;;;;;2.13;98.48;98833.63;5032011;28;20631;-83
2023/03/04 09:26:30;;;;;;;29.57;15.57;;;;;;;2.11;98.56;98836.31;5031690;28;20219;-83
2023/03/04 09:28:58;;;;;;;29.07;15.37;;;;;;;2.19;98.60;98836.09;5031845;28;20208;-83
2023/03/04 09:31:25;;;;;;;28.00;16.00;;;;;;;2.28;97.54;98831.50;5031712;28;20226;-86
2023/03/04 09:33:53;;;;;;;26.73;15.33;;;;;;;2.31;96.98;98826.22;5031548;28;20235;-82
2023/03/04 09:36:20;;;;;;;31.10;17.37;;;;;;;2.38;97.26;98822.56;5031898;28;20231;-82
2023/03/04 09:38:47;;;;;;;28.47;15.70;;;;;;;2.48;96.88;98818.81;5031694;28;20207;-82
2023/03/04 09:41:18;;;;;;;24.60;15.37;;;;;;;2.57;96.41;98821.19;5032069;28;20212;-81
2023/03/04 09:43:46;;;;;;;27.30;17.80;;;;;;;2.67;95.86;98819.16;5043222;28;20434;-81
2023/03/04 09:46:18;;;;;;;23.23;14.37;;;;;;;2.67;94.41;98812.22;5052338;28;20210;-80
2023/03/04 09:48:48;;;;;;;23.87;14.33;;;;;;;2.80;93.03;98816.19;5051916;28;20212;-80
2023/03/04 09:51:22;;;;;;;25.07;13.27;;;;;;;2.88;91.91;98814.22;5048241;28;20282;-78
2023/03/04 09:54:01;;;;;;;23.40;14.00;;;;;;;2.99;91.27;98809.56;5042945;28;20239;-80
2023/03/04 09:56:28;;;;;;;25.20;15.00;;;;;;;3.10;89.78;98810.09;5035408;28;20327;-78
2023/03/04 09:59:06;;;;;;;22.47;14.63;;;;;;;3.12;89.44;98808.28;5052876;28;20209;-80
2023/03/04 10:01:39;;;;;;;24.90;14.83;;;;;;;3.17;88.76;98806.41;5056870;28;20248;-82
2023/03/04 10:04:13;;;;;;;24.03;14.10;;;;;;;3.16;87.51;98804.72;5057786;28;20291;-83
2023/03/04 10:06:42;;;;;;;25.00;15.83;;;;;;;3.26;86.54;98800.94;5056017;28;20259;-82
2023/03/04 10:09:14;;;;;;;21.20;13.50;;;;;;;3.34;85.37;98798.06;5040079;28;20216;-83
2023/03/04 10:11:44;;;;;;;23.00;12.80;;;;;;;3.39;85.35;98794.44;5039906;28;20201;-83
2023/03/04 10:14:26;;;;;;;26.00;14.30;;;;;;;3.40;83.63;98796.16;5039398;28;20241;-83
2023/03/04 10:16:59;;;;;;;23.77;14.07;;;;;;;3.50;83.76;98792.34;5037855;28;20193;-83
2023/03/04 10:19:34;;;;;;;27.33;15.53;;;;;;;3.62;80.90;98780.66;5038369;28;20196;-83
2023/03/04 10:22:12;;;;;;;26.37;14.90;;;;;;;3.61;79.61;98774.56;5037177;28;20223;-83
2023/03/04 10:24:38;;;;;;;25.20;14.57;;;;;;;3.62;80.49;98784.09;5035529;28;20234;-83
2023/03/04 10:27:12;;;;;;;26.63;14.60;;;;;;;3.74;80.58;98781.09;5035207;28;20208;-83
2023/03/04 10:29:38;;;;;;;27.00;14.80;;;;;;;3.79;80.24;98775.75;5035046;28;20219;-84
2023/03/04 10:32:05;;;;;;;28.10;15.87;;;;;;;3.87;80.73;98778.97;5034689;28;20235;-83
2023/03/04 10:34:32;;;;;;;24.17;16.13;;;;;;;3.92;78.65;98775.28;5034815;28;20236;-84
2023/03/04 10:37:01;;;;;;;29.37;16.70;;;;;;;3.80;76.77;98767.84;5034588;28;20212;-84
2023/03/04 10:39:31;;;;;;;29.83;17.17;;;;;;;3.72;77.56;98759.41;5034732;28;20583;-80
2023/03/04 10:42:01;;;;;;;29.20;16.53;;;;;;;3.69;77.71;98769.97;5034593;28;20208;-81
2023/03/04 10:44:29;;;;;;;26.00;16.30;;;;;;;3.82;76.20;98763.44;5034400;28;20625;-81
2023/03/04 10:46:57;;;;;;;30.33;16.97;;;;;;;3.67;77.13;98766.53;5034396;28;20728;-77
2023/03/04 10:49:25;;;;;;;31.83;17.53;;;;;;;3.52;77.07;98767.03;5033052;28;20224;-77
2023/03/04 10:51:54;;;;;;;27.37;16.10;;;;;;;3.56;77.61;98763.38;5032859;28;20455;-77
2023/03/04 10:54:27;;;;;;;30.57;18.27;;;;;;;3.57;77.60;98765.13;5033494;28;20244;-81
2023/03/04 10:56:58;;;;;;;26.27;16.60;;;;;;;3.58;77.80;98760.75;5033441;28;20236;-82
2023/03/04 10:59:38;;;;;;;30.80;17.50;;;;;;;3.71;76.03;98748.97;5026241;28;20208;-82
2023/03/04 11:02:15;;;;;;;30.13;17.90;;;;;;;3.66;75.57;98749.13;5030732;28;20653;-80
2023/03/04 11:04:42;;;;;;;31.57;17.53;;;;;;;3.55;76.17;98748.63;5034363;28;20232;-80
2023/03/04 11:07:10;;;;;;;31.27;17.83;;;;;;;3.54;76.77;98749.53;5033748;28;20219;-77
2023/03/04 11:09:39;;;;;;;31.47;17.53;;;;;;;3.58;76.45;98745.94;5033997;28;20639;-77
2023/03/04 11:12:11;;;;;;;31.50;17.63;;;;;;;3.71;76.04;98746.38;5034113;28;20247;-77
2023/03/04 11:14:43;;;;;;;31.37;17.60;;;;;;;3.81;76.51;98740.81;5033836;28;20228;-77
2023/03/04 11:17:19;;;;;;;31.70;17.73;;;;;;;3.84;76.11;98742.47;5033533;28;20679;-79
2023/03/04 11:19:48;;;;;;;30.03;18.20;;;;;;;3.67;75.71;98740.38;5033840;28;20681;-79